createdAt,value
2023-01-19T00:01:55.240Z,9.93
2023-01-19T00:04:23.719Z,9.65
2023-01-19T00:06:52.653Z,11.35
2023-01-19T00:09:26.185Z,11.13
2023-01-19T00:11:54.657Z,10.75
2023-01-19T00:14:24.794Z,12.10
2023-01-19T00:16:53.239Z,12.45
2023-01-19T00:19:25.645Z,11.20
2023-01-19T00:21:54.367Z,12.05
2023-01-19T00:24:22.948Z,11.43
2023-01-19T00:26:51.439Z,10.40
2023-01-19T00:29:20.305Z,10.25
2023-01-19T00:31:50.314Z,10.77
2023-01-19T00:34:19.041Z,10.80
2023-01-19T00:36:47.545Z,9.95
2023-01-19T00:39:16.211Z,10.43
2023-01-19T00:42:02.084Z,9.63
2023-01-19T00:44:30.687Z,11.05
2023-01-19T00:47:00.988Z,10.45
2023-01-19T00:49:29.527Z,11.00
2023-01-19T00:51:58.542Z,10.07
2023-01-19T00:54:27.718Z,10.32
2023-01-19T00:56:56.354Z,10.52
2023-01-19T00:59:25.721Z,11.18
2023-01-19T01:01:54.289Z,11.48
2023-01-19T01:04:24.529Z,10.73
2023-01-19T01:06:53.084Z,10.18
2023-01-19T01:09:21.680Z,11.75
2023-01-19T01:11:50.582Z,11.48
2023-01-19T01:14:19.375Z,11.25
2023-01-19T01:16:48.067Z,11.57
2023-01-19T01:19:17.373Z,12.40
2023-01-19T01:21:47.490Z,11.18
2023-01-19T01:24:16.235Z,11.57
2023-01-19T01:26:44.710Z,10.70
2023-01-19T01:29:13.783Z,11.35
2023-01-19T01:31:42.398Z,11.27
2023-01-19T01:34:11.178Z,12.00
2023-01-19T01:36:39.666Z,11.95
2023-01-19T01:39:09.765Z,12.13
2023-01-19T01:41:38.322Z,11.55
2023-01-19T01:44:36.886Z,10.93
2023-01-19T01:47:05.988Z,12.23
2023-01-19T01:49:34.608Z,12.23
2023-01-19T01:52:04.496Z,12.02
2023-01-19T01:54:34.949Z,12.13
2023-01-19T01:57:08.539Z,11.60
2023-01-19T01:59:41.045Z,10.75
2023-01-19T02:02:31.710Z,12.15
2023-01-19T02:05:04.929Z,11.35
2023-01-19T02:07:56.928Z,11.05
2023-01-19T02:10:44.674Z,10.70
2023-01-19T02:13:23.587Z,12.30
2023-01-19T02:15:54.027Z,11.90
2023-01-19T02:18:24.620Z,11.45
2023-01-19T02:21:00.120Z,11.68
2023-01-19T02:23:38.164Z,11.85
2023-01-19T02:26:11.845Z,11.13
2023-01-19T02:28:44.422Z,10.80
2023-01-19T02:31:15.079Z,11.60
2023-01-19T02:33:43.963Z,11.38
2023-01-19T02:36:15.981Z,12.18
2023-01-19T02:38:49.817Z,10.48
2023-01-19T02:41:23.514Z,11.00
2023-01-19T02:43:53.717Z,11.75
2023-01-19T02:46:22.383Z,12.10
2023-01-19T02:48:50.895Z,11.48
2023-01-19T02:51:23.885Z,10.55
2023-01-19T02:54:12.233Z,8.63
2023-01-19T02:56:52.512Z,11.35
2023-01-19T02:59:30.538Z,10.85
2023-01-19T03:02:11.823Z,10.82
2023-01-19T03:04:52.433Z,12.07
2023-01-19T03:07:28.694Z,10.20
2023-01-19T03:10:05.027Z,9.77
2023-01-19T03:12:41.819Z,10.68
2023-01-19T03:15:18.704Z,10.00
2023-01-19T03:17:51.090Z,10.52
2023-01-19T03:20:24.718Z,9.80
2023-01-19T03:22:57.403Z,11.45
2023-01-19T03:25:29.119Z,10.32
2023-01-19T03:27:58.791Z,10.48
2023-01-19T03:30:30.427Z,10.00
2023-01-19T03:33:04.791Z,10.63
2023-01-19T03:35:37.169Z,9.85
2023-01-19T03:38:10.665Z,11.93
2023-01-19T03:40:41.653Z,10.15
2023-01-19T03:43:11.380Z,9.57
2023-01-19T03:45:40.592Z,9.68
2023-01-19T03:48:09.277Z,9.65
2023-01-19T03:50:38.153Z,10.02
2023-01-19T03:53:08.670Z,9.63
2023-01-19T03:55:38.865Z,10.45
2023-01-19T03:58:08.825Z,9.57
2023-01-19T04:00:38.589Z,10.65
2023-01-19T04:03:12.346Z,9.30
2023-01-19T04:05:41.480Z,9.90
2023-01-19T04:08:11.975Z,10.07
2023-01-19T04:10:40.625Z,10.98
2023-01-19T04:13:10.522Z,10.65
2023-01-19T04:15:39.503Z,10.90
2023-01-19T04:18:08.374Z,13.18
2023-01-19T04:20:36.764Z,11.50
2023-01-19T04:23:05.263Z,12.23
2023-01-19T04:25:34.213Z,15.73
2023-01-19T04:28:02.615Z,15.07
2023-01-19T04:30:32.752Z,15.20
2023-01-19T04:33:01.637Z,16.58
2023-01-19T04:35:30.811Z,17.70
2023-01-19T04:37:59.549Z,16.65
2023-01-19T04:40:28.206Z,15.48
2023-01-19T04:42:56.989Z,16.67
2023-01-19T04:45:25.652Z,18.45
2023-01-19T04:47:55.599Z,16.70
2023-01-19T04:50:24.860Z,16.90
2023-01-19T04:52:53.604Z,18.90
2023-01-19T04:55:22.226Z,18.52
2023-01-19T04:57:50.690Z,17.35
2023-01-19T05:00:20.766Z,16.10
2023-01-19T05:02:49.264Z,17.80
2023-01-19T05:05:19.681Z,18.33
2023-01-19T05:07:56.146Z,16.27
2023-01-19T05:10:25.168Z,18.65
2023-01-19T05:12:53.669Z,18.10
2023-01-19T05:15:22.579Z,18.80
2023-01-19T05:17:51.186Z,18.65
2023-01-19T05:20:22.022Z,16.90
2023-01-19T05:22:51.382Z,18.38
2023-01-19T05:25:29.686Z,17.65
2023-01-19T05:27:59.421Z,17.48
2023-01-19T05:30:27.819Z,17.15
2023-01-19T05:32:56.316Z,19.13
2023-01-19T05:35:35.584Z,17.40
2023-01-19T05:38:07.652Z,19.30
2023-01-19T05:40:36.208Z,20.42
2023-01-19T05:43:05.229Z,19.30
2023-01-19T05:45:34.450Z,21.45
2023-01-19T05:48:03.113Z,21.10
2023-01-19T05:50:37.903Z,22.20
2023-01-19T05:53:08.104Z,20.50
2023-01-19T05:55:37.951Z,21.35
2023-01-19T05:58:06.412Z,23.40
2023-01-19T06:00:34.873Z,21.42
2023-01-19T06:03:04.946Z,22.20
2023-01-19T06:05:37.984Z,22.20
2023-01-19T06:08:07.040Z,23.42
2023-01-19T06:10:35.468Z,23.77
2023-01-19T06:13:04.168Z,24.70
2023-01-19T06:15:32.711Z,25.23
2023-01-19T06:18:01.998Z,23.73
2023-01-19T06:20:30.723Z,25.10
2023-01-19T06:23:00.846Z,23.08
2023-01-19T06:25:29.810Z,22.77
2023-01-19T06:27:58.328Z,24.50
2023-01-19T06:30:26.996Z,24.42
2023-01-19T06:32:55.615Z,25.80
2023-01-19T06:35:24.078Z,27.17
2023-01-19T06:37:54.640Z,24.45
2023-01-19T06:40:24.779Z,23.45
2023-01-19T06:42:53.209Z,23.70
2023-01-19T06:45:21.607Z,24.33
2023-01-19T06:47:50.107Z,25.58
2023-01-19T06:50:19.626Z,23.70
2023-01-19T06:52:50.930Z,25.45
2023-01-19T06:55:20.206Z,22.92
2023-01-19T06:57:50.051Z,23.35
2023-01-19T07:00:19.613Z,24.70
2023-01-19T07:02:50.271Z,21.85
2023-01-19T07:05:18.947Z,21.48
2023-01-19T07:07:52.541Z,21.27
2023-01-19T07:10:22.235Z,20.80
2023-01-19T07:12:53.243Z,19.48
2023-01-19T07:15:22.588Z,19.30
2023-01-19T07:17:51.047Z,21.38
2023-01-19T07:20:19.669Z,22.77
2023-01-19T07:22:48.903Z,22.70
2023-01-19T07:25:17.836Z,21.85
2023-01-19T07:27:47.202Z,21.77
2023-01-19T07:30:17.446Z,24.10
2023-01-19T07:32:45.978Z,20.80
2023-01-19T07:35:15.430Z,24.77
2023-01-19T07:37:44.007Z,24.55
2023-01-19T07:40:13.178Z,24.42
2023-01-19T07:42:46.500Z,26.70
2023-01-19T07:45:17.113Z,28.40
2023-01-19T07:47:45.943Z,26.13
2023-01-19T07:50:14.600Z,27.13
2023-01-19T07:52:43.403Z,28.98
2023-01-19T07:55:12.499Z,27.13
2023-01-19T07:57:41.183Z,23.70
2023-01-19T08:00:10.888Z,25.40
2023-01-19T08:02:41.151Z,24.10
2023-01-19T08:05:10.096Z,23.85
2023-01-19T08:07:38.523Z,24.00
2023-01-19T08:10:08.329Z,22.15
2023-01-19T08:12:36.782Z,21.70
2023-01-19T08:15:06.189Z,24.80
2023-01-19T08:17:34.901Z,24.63
2023-01-19T08:20:06.589Z,22.83
2023-01-19T08:22:35.196Z,24.33
2023-01-19T08:25:03.931Z,24.10
2023-01-19T08:27:32.419Z,23.58
2023-01-19T08:30:10.263Z,21.30
2023-01-19T08:32:39.002Z,23.40
2023-01-19T08:35:09.912Z,22.67
2023-01-19T08:37:38.716Z,22.60
2023-01-19T08:40:08.975Z,22.45
2023-01-19T08:42:37.449Z,21.40
2023-01-19T08:45:18.541Z,22.58
2023-01-19T08:47:47.027Z,23.10
2023-01-19T08:50:17.524Z,20.85
2023-01-19T08:52:46.109Z,23.55
2023-01-19T08:55:14.694Z,23.70
2023-01-19T08:57:43.359Z,25.27
2023-01-19T09:00:13.254Z,24.63
2023-01-19T09:02:42.013Z,25.65
2023-01-19T09:05:10.764Z,22.77
2023-01-19T09:07:41.683Z,23.58
2023-01-19T09:10:11.615Z,28.42
2023-01-19T09:12:40.227Z,22.90
2023-01-19T09:15:10.687Z,25.38
2023-01-19T09:17:41.535Z,26.80
2023-01-19T09:20:11.791Z,26.98
2023-01-19T09:22:41.670Z,25.83
2023-01-19T09:25:11.004Z,28.13
2023-01-19T09:27:39.818Z,24.55
2023-01-19T09:30:11.520Z,27.35
2023-01-19T09:32:40.047Z,26.17
2023-01-19T09:35:09.223Z,26.33
2023-01-19T09:37:37.674Z,25.65
2023-01-19T09:40:11.132Z,26.30
2023-01-19T09:42:44.409Z,26.17
2023-01-19T09:45:19.713Z,28.73
2023-01-19T09:47:50.200Z,28.77
2023-01-19T09:50:29.070Z,27.95
2023-01-19T09:53:02.417Z,28.23
2023-01-19T09:55:32.528Z,31.15
2023-01-19T09:58:01.351Z,28.20
2023-01-19T10:00:37.805Z,26.90
2023-01-19T10:03:16.535Z,27.77
2023-01-19T10:05:50.338Z,31.52
2023-01-19T10:08:27.106Z,27.73
2023-01-19T10:10:59.182Z,29.73
2023-01-19T10:13:39.179Z,26.73
2023-01-19T10:16:23.019Z,28.27
2023-01-19T10:18:58.671Z,27.10
2023-01-19T10:21:33.473Z,27.13
2023-01-19T10:24:11.107Z,24.33
2023-01-19T10:26:48.038Z,24.83
2023-01-19T10:29:23.548Z,25.33
2023-01-19T10:31:55.632Z,26.92
2023-01-19T10:34:24.700Z,27.95
2023-01-19T10:37:04.198Z,29.50
2023-01-19T10:39:38.862Z,32.20
2023-01-19T10:42:18.019Z,30.63
2023-01-19T10:44:47.572Z,31.23
2023-01-19T10:47:22.777Z,31.00
2023-01-19T10:49:52.144Z,29.17
2023-01-19T10:52:31.691Z,28.58
2023-01-19T10:55:02.213Z,27.38
2023-01-19T10:57:38.386Z,26.08
2023-01-19T11:00:28.447Z,24.90
2023-01-19T11:03:01.173Z,24.95
2023-01-19T11:05:34.073Z,24.42
2023-01-19T11:08:24.000Z,25.00
2023-01-19T11:11:04.581Z,27.95
2023-01-19T11:13:35.583Z,29.95
2023-01-19T11:16:11.545Z,26.33
2023-01-19T11:18:42.393Z,25.15
2023-01-19T11:21:14.246Z,25.45
2023-01-19T11:23:47.654Z,22.38
2023-01-19T11:26:25.543Z,26.25
2023-01-19T11:28:58.790Z,27.85
2023-01-19T11:31:34.619Z,28.00
2023-01-19T11:34:05.824Z,23.52
2023-01-19T11:36:37.111Z,25.95
2023-01-19T11:39:25.783Z,25.10
2023-01-19T11:42:06.455Z,24.15
2023-01-19T11:44:45.762Z,20.65
2023-01-19T11:47:22.237Z,23.20
2023-01-19T11:50:02.748Z,20.80
2023-01-19T11:52:37.134Z,24.42
2023-01-19T11:55:15.182Z,22.08
2023-01-19T11:57:47.901Z,22.95
2023-01-19T12:00:26.235Z,23.27
2023-01-19T12:02:59.646Z,19.95
2023-01-19T12:05:34.085Z,19.67
2023-01-19T12:08:08.859Z,21.92
2023-01-19T12:10:43.604Z,22.70
2023-01-19T12:13:21.317Z,23.67
2023-01-19T12:15:57.737Z,21.03
2023-01-19T12:18:34.160Z,24.58
2023-01-19T12:21:04.229Z,21.15
2023-01-19T12:23:41.558Z,23.88
2023-01-19T12:26:29.613Z,28.08
2023-01-19T12:29:04.340Z,31.98
2023-01-19T12:31:35.043Z,30.17
2023-01-19T12:34:40.591Z,32.47
2023-01-19T12:37:32.677Z,32.55
2023-01-19T12:40:05.499Z,35.05
2023-01-19T12:42:34.859Z,34.90
2023-01-19T12:45:09.314Z,34.97
2023-01-19T12:47:39.397Z,33.75
2023-01-19T12:50:14.938Z,34.08
2023-01-19T12:52:51.557Z,34.95
2023-01-19T12:55:27.374Z,36.15
2023-01-19T12:58:00.768Z,34.75
2023-01-19T13:00:36.099Z,33.83
2023-01-19T13:03:41.472Z,33.10
2023-01-19T13:06:10.176Z,36.92
2023-01-19T13:08:58.806Z,36.70
2023-01-19T13:11:32.643Z,34.70
2023-01-19T13:14:35.445Z,32.70
2023-01-19T13:17:27.883Z,39.35
2023-01-19T13:20:07.049Z,35.95
2023-01-19T13:23:20.663Z,34.47
2023-01-19T13:25:55.488Z,35.88
2023-01-19T13:28:32.967Z,36.63
2023-01-19T13:31:03.793Z,35.25
2023-01-19T13:33:41.389Z,32.00
2023-01-19T13:36:33.545Z,28.85
2023-01-19T13:39:06.101Z,28.60
2023-01-19T13:41:38.515Z,29.20
2023-01-19T13:44:11.054Z,27.90
2023-01-19T13:46:40.657Z,28.20
2023-01-19T13:49:18.242Z,27.60
2023-01-19T13:52:05.327Z,30.37
2023-01-19T13:54:33.951Z,28.48
2023-01-19T13:57:02.499Z,27.85
2023-01-19T13:59:31.064Z,27.00
2023-01-19T14:02:14.218Z,28.63
2023-01-19T14:04:42.962Z,29.75
2023-01-19T14:07:26.179Z,29.55
2023-01-19T14:10:05.409Z,29.20
2023-01-19T14:12:38.149Z,27.08
2023-01-19T14:15:14.251Z,27.65
2023-01-19T14:17:42.937Z,26.40
2023-01-19T14:20:29.578Z,24.10
2023-01-19T14:22:59.874Z,26.60
2023-01-19T14:25:30.291Z,24.73
2023-01-19T14:28:30.748Z,27.35
2023-01-19T14:31:01.422Z,26.15
2023-01-19T14:33:43.661Z,27.23
2023-01-19T14:36:30.257Z,26.55
2023-01-19T14:39:02.123Z,25.40
2023-01-19T14:41:37.060Z,24.08
2023-01-19T14:44:10.158Z,24.45
2023-01-19T14:46:53.064Z,23.55
2023-01-19T14:49:33.595Z,24.30
2023-01-19T14:52:06.178Z,26.13
2023-01-19T14:54:40.748Z,24.30
2023-01-19T14:57:13.629Z,23.25
2023-01-19T14:59:46.791Z,23.63
2023-01-19T15:02:15.983Z,23.10
2023-01-19T15:04:44.519Z,23.23
2023-01-19T15:07:19.140Z,22.38
2023-01-19T15:09:49.736Z,21.90
2023-01-19T15:12:20.894Z,20.15
2023-01-19T15:14:49.441Z,19.88
2023-01-19T15:17:25.715Z,18.55
2023-01-19T15:19:55.576Z,18.70
2023-01-19T15:22:27.331Z,17.63
2023-01-19T15:24:59.955Z,18.30
2023-01-19T15:27:28.807Z,17.20
2023-01-19T15:29:59.669Z,16.13
2023-01-19T15:32:28.244Z,17.05
2023-01-19T15:34:57.070Z,17.05
2023-01-19T15:37:25.873Z,16.40
2023-01-19T15:39:54.330Z,16.40
2023-01-19T15:42:24.341Z,15.93
2023-01-19T15:44:54.142Z,16.70
2023-01-19T15:47:22.623Z,17.45
2023-01-19T15:49:54.528Z,16.00
2023-01-19T15:52:24.049Z,17.20
2023-01-19T15:54:52.582Z,16.83
2023-01-19T15:57:27.983Z,17.90
2023-01-19T15:59:57.626Z,18.08
2023-01-19T16:02:26.232Z,18.85
2023-01-19T16:04:58.909Z,17.67
2023-01-19T16:07:41.746Z,18.38
2023-01-19T16:10:12.879Z,18.80
2023-01-19T16:12:42.705Z,18.40
2023-01-19T16:15:12.060Z,18.73
2023-01-19T16:17:40.869Z,20.00
2023-01-19T16:20:16.450Z,19.17
2023-01-19T16:22:45.326Z,17.63
2023-01-19T16:25:13.845Z,17.80
2023-01-19T16:27:43.723Z,19.23
2023-01-19T16:30:13.264Z,19.00
2023-01-19T16:32:41.663Z,19.17
2023-01-19T16:35:10.456Z,19.30
2023-01-19T16:37:39.518Z,18.65
2023-01-19T16:40:09.144Z,18.55
2023-01-19T16:42:39.096Z,18.20
2023-01-19T16:45:09.645Z,18.40
2023-01-19T16:47:40.542Z,18.92
2023-01-19T16:50:13.640Z,18.42
2023-01-19T16:52:50.831Z,19.08
2023-01-19T16:55:30.431Z,18.48
2023-01-19T16:58:03.487Z,19.95
2023-01-19T17:00:33.484Z,18.58
2023-01-19T17:03:01.931Z,19.55
2023-01-19T17:05:30.420Z,19.65
2023-01-19T17:08:00.134Z,19.70
2023-01-19T17:10:29.478Z,19.55
2023-01-19T17:13:10.564Z,19.33
2023-01-19T17:15:40.719Z,18.52
2023-01-19T17:18:10.170Z,19.38
2023-01-19T17:20:38.678Z,17.98
2023-01-19T17:23:07.135Z,19.02
2023-01-19T17:25:35.697Z,19.48
2023-01-19T17:28:04.435Z,20.45
2023-01-19T17:30:34.506Z,21.35
2023-01-19T17:33:04.851Z,19.63
2023-01-19T17:35:35.337Z,19.27
2023-01-19T17:38:04.028Z,18.48
2023-01-19T17:40:32.521Z,17.63
2023-01-19T17:43:01.003Z,17.40
2023-01-19T17:45:29.390Z,19.25
2023-01-19T17:47:57.871Z,22.27
2023-01-19T17:50:27.862Z,18.02
2023-01-19T17:52:56.455Z,17.63
2023-01-19T17:55:24.911Z,18.05
2023-01-19T17:57:53.394Z,17.10
2023-01-19T18:00:22.728Z,17.45
2023-01-19T18:02:51.746Z,18.13
2023-01-19T18:05:20.821Z,18.40
2023-01-19T18:07:50.793Z,18.92
2023-01-19T18:10:19.277Z,19.48
2023-01-19T18:12:47.709Z,19.85
2023-01-19T18:15:17.052Z,19.85
2023-01-19T18:17:45.670Z,20.30
2023-01-19T18:20:14.587Z,21.83
2023-01-19T18:22:43.337Z,21.13
2023-01-19T18:25:13.185Z,22.05
2023-01-19T18:27:41.973Z,21.92
2023-01-19T18:30:12.069Z,21.35
2023-01-19T18:32:41.294Z,21.80
2023-01-19T18:35:10.533Z,22.73
2023-01-19T18:37:42.124Z,23.00
2023-01-19T18:40:14.462Z,22.10
2023-01-19T18:42:47.386Z,23.52
2023-01-19T18:45:18.066Z,23.35
2023-01-19T18:47:48.750Z,22.70
2023-01-19T18:50:19.110Z,23.63
2023-01-19T18:52:48.834Z,22.77
2023-01-19T18:55:19.286Z,24.50
2023-01-19T18:57:47.894Z,24.42
2023-01-19T19:00:23.393Z,25.02
2023-01-19T19:02:52.043Z,22.50
2023-01-19T19:05:21.394Z,21.98
2023-01-19T19:07:50.632Z,22.70
2023-01-19T19:10:22.162Z,23.00
2023-01-19T19:12:51.127Z,21.52
2023-01-19T19:15:20.194Z,23.27
2023-01-19T19:17:48.765Z,21.90
2023-01-19T19:20:18.053Z,22.63
2023-01-19T19:22:50.338Z,22.45
2023-01-19T19:25:21.125Z,22.33
2023-01-19T19:27:51.711Z,22.80
2023-01-19T19:30:23.826Z,22.58
2023-01-19T19:32:54.183Z,21.15
2023-01-19T19:35:23.828Z,23.73
2023-01-19T19:37:57.217Z,21.92
2023-01-19T19:40:29.195Z,24.67
2023-01-19T19:43:02.765Z,21.98
2023-01-19T19:45:33.343Z,23.23
2023-01-19T19:48:03.095Z,22.92
2023-01-19T19:50:32.123Z,22.80
2023-01-19T19:53:00.637Z,22.50
2023-01-19T19:55:31.059Z,21.40
2023-01-19T19:57:59.487Z,23.55
2023-01-19T20:00:28.242Z,23.67
2023-01-19T20:02:56.845Z,22.27
2023-01-19T20:05:36.381Z,23.20
2023-01-19T20:08:07.011Z,24.45
2023-01-19T20:10:38.135Z,24.40
2023-01-19T20:13:09.140Z,25.02
2023-01-19T20:15:38.953Z,22.88
2023-01-19T20:18:08.864Z,23.63
2023-01-19T20:20:38.305Z,23.45
2023-01-19T20:23:07.245Z,22.77
2023-01-19T20:25:39.999Z,22.02
2023-01-19T20:28:09.016Z,21.98
2023-01-19T20:30:37.692Z,22.42
2023-01-19T20:33:06.547Z,23.98
2023-01-19T20:35:37.354Z,25.52
2023-01-19T20:38:07.382Z,23.88
2023-01-19T20:40:40.213Z,23.95
2023-01-19T20:43:11.961Z,24.48
2023-01-19T20:45:45.065Z,23.02
2023-01-19T20:48:14.129Z,23.05
2023-01-19T20:50:42.991Z,23.65
2023-01-19T20:53:12.128Z,23.08
2023-01-19T20:55:47.545Z,22.27
2023-01-19T20:58:17.094Z,21.55
2023-01-19T21:00:46.119Z,23.13
2023-01-19T21:03:17.222Z,23.48
2023-01-19T21:05:47.993Z,23.67
2023-01-19T21:08:18.180Z,23.13
2023-01-19T21:10:48.188Z,22.67
2023-01-19T21:13:17.806Z,23.73
2023-01-19T21:15:47.459Z,23.75
2023-01-19T21:18:16.622Z,27.20
2023-01-19T21:20:48.026Z,30.25
2023-01-19T21:23:19.331Z,27.80
2023-01-19T21:25:52.808Z,24.75
2023-01-19T21:28:23.336Z,24.30
2023-01-19T21:30:53.241Z,25.20
2023-01-19T21:33:22.643Z,26.80
2023-01-19T21:35:52.159Z,28.92
2023-01-19T21:38:21.039Z,28.92
2023-01-19T21:40:50.202Z,26.92
2023-01-19T21:43:21.180Z,26.77
2023-01-19T21:45:50.365Z,27.50
2023-01-19T21:48:20.061Z,29.88
2023-01-19T21:50:57.641Z,29.15
2023-01-19T21:53:29.347Z,29.85
2023-01-19T21:55:58.561Z,28.60
2023-01-19T21:58:29.343Z,29.70
2023-01-19T22:01:03.799Z,27.75
2023-01-19T22:03:35.553Z,27.55
2023-01-19T22:06:05.752Z,28.35
2023-01-19T22:08:34.543Z,28.50
2023-01-19T22:11:05.306Z,27.05
2023-01-19T22:13:36.351Z,27.73
2023-01-19T22:16:08.627Z,27.35
2023-01-19T22:18:37.757Z,25.25
2023-01-19T22:21:10.753Z,27.35
2023-01-19T22:23:40.021Z,27.55
2023-01-19T22:26:10.636Z,28.45
2023-01-19T22:28:40.605Z,27.05
2023-01-19T22:31:11.452Z,29.48
2023-01-19T22:33:40.801Z,25.95
2023-01-19T22:36:15.307Z,28.08
2023-01-19T22:38:45.110Z,28.35
2023-01-19T22:41:18.723Z,29.33
2023-01-19T22:43:49.475Z,27.85
2023-01-19T22:46:20.014Z,27.95
2023-01-19T22:48:49.420Z,27.55
2023-01-19T22:51:19.440Z,29.42
2023-01-19T22:53:47.859Z,28.17
2023-01-19T22:56:18.412Z,27.60
2023-01-19T22:58:48.905Z,27.33
2023-01-19T23:01:19.323Z,26.67
2023-01-19T23:03:47.969Z,27.40
2023-01-19T23:06:18.302Z,28.92
2023-01-19T23:08:46.783Z,26.45
2023-01-19T23:11:17.585Z,26.17
2023-01-19T23:13:46.633Z,25.42
2023-01-19T23:16:16.737Z,26.70
2023-01-19T23:18:45.647Z,26.77
2023-01-19T23:21:15.805Z,25.83
2023-01-19T23:23:45.166Z,27.63
2023-01-19T23:26:16.167Z,27.10
2023-01-19T23:28:45.710Z,26.75
2023-01-19T23:31:17.154Z,27.80
2023-01-19T23:33:46.111Z,26.52
2023-01-19T23:36:15.826Z,26.67
2023-01-19T23:38:49.556Z,26.13
2023-01-19T23:41:18.459Z,27.10
2023-01-19T23:43:46.893Z,28.20
2023-01-19T23:46:18.521Z,28.02
2023-01-19T23:48:47.641Z,27.92
2023-01-19T23:51:18.724Z,28.08
2023-01-19T23:53:47.281Z,28.70
2023-01-19T23:56:17.418Z,29.95
2023-01-19T23:58:47.030Z,30.40
